Time;durP1;ratioP1;P1;durP2;ratioP2;P2;SDS_P1;SDS_P2;PMS_P1;PMS_P2;Temp;Humidity;BMP_temperature;BMP_pressure;BME280_temperature;BME280_humidity;BME280_pressure;Samples;Min_cycle;Max_cycle;Signal;HPM_P1;HPM_P2
2023/04/08 00:01:40;;;;;;;23.70;21.67;;;9.80;99.90;;;;;;5091733;28;20936;-82
2023/04/08 00:04:08;;;;;;;23.80;22.20;;;9.80;39.80;;;;;;5085785;28;20476;-82
2023/04/08 00:06:37;;;;;;;23.80;22.00;;;9.80;77.00;;;;;;5087653;28;20481;-81
2023/04/08 00:09:07;;;;;;;25.03;23.10;;;9.80;1.00;;;;;;5089375;28;20449;-82
2023/04/08 00:11:36;;;;;;;24.60;22.90;;;9.70;1.00;;;;;;5086756;28;20553;-80
2023/04/08 00:14:04;;;;;;;24.90;23.00;;;9.70;1.00;;;;;;5088937;28;20486;-81
2023/04/08 00:16:33;;;;;;;24.23;22.57;;;9.80;99.90;;;;;;5088739;28;20459;-82
2023/04/08 00:19:01;;;;;;;24.57;22.90;;;9.70;1.00;;;;;;5086593;28;21069;-80
2023/04/08 00:21:30;;;;;;;24.40;22.80;;;9.70;1.00;;;;;;5090500;28;20455;-82
2023/04/08 00:23:58;;;;;;;24.17;22.53;;;9.70;11.50;;;;;;5090290;28;20532;-81
2023/04/08 00:26:28;;;;;;;25.83;23.83;;;9.70;99.90;;;;;;5080875;28;20461;-80
2023/04/08 00:28:56;;;;;;;24.47;22.80;;;9.80;1.00;;;;;;5087998;28;20461;-81
2023/04/08 00:31:24;;;;;;;25.27;23.27;;;9.80;99.90;;;;;;5086766;28;20437;-80
2023/04/08 00:33:52;;;;;;;23.47;21.93;;;9.80;1.00;;;;;;5086668;28;20489;-81
2023/04/08 00:36:20;;;;;;;25.53;23.67;;;9.80;1.00;;;;;;5089216;28;20559;-82
2023/04/08 00:38:48;;;;;;;24.83;22.93;;;9.80;1.00;;;;;;5087307;28;20472;-81
2023/04/08 00:41:17;;;;;;;24.00;22.30;;;9.80;1.00;;;;;;5086222;28;20853;-81
2023/04/08 00:43:47;;;;;;;24.73;23.07;;;9.80;99.90;;;;;;5089285;28;21096;-81
2023/04/08 00:46:15;;;;;;;23.23;21.73;;;9.80;1.00;;;;;;5088924;28;20454;-82
2023/04/08 00:48:43;;;;;;;24.07;22.37;;;9.80;1.00;;;;;;5088101;28;20539;-82
2023/04/08 00:51:12;;;;;;;22.63;21.13;;;9.80;99.90;;;;;;5084239;28;20450;-83
2023/04/08 00:53:40;;;;;;;21.50;20.20;;;9.80;1.00;;;;;;5090074;28;20478;-82
2023/04/08 00:56:08;;;;;;;20.17;19.00;;;9.90;99.90;;;;;;5084527;28;20457;-82
2023/04/08 00:58:36;;;;;;;21.30;20.10;;;9.80;1.00;;;;;;5079666;28;20457;-82
2023/04/08 01:01:09;;;;;;;21.10;19.80;;;9.90;99.90;;;;;;5081374;28;20449;-82
2023/04/08 01:03:46;;;;;;;21.50;20.20;;;9.90;99.90;;;;;;5084621;28;20472;-83
2023/04/08 01:06:23;;;;;;;22.03;20.53;;;9.80;1.00;;;;;;5082178;28;20549;-81
2023/04/08 01:08:52;;;;;;;21.60;20.30;;;9.80;99.90;;;;;;5086030;28;20477;-82
2023/04/08 01:11:21;;;;;;;21.40;20.20;;;9.80;99.90;;;;;;5085593;28;20504;-82
2023/04/08 01:13:50;;;;;;;21.00;19.80;;;9.90;1.00;;;;;;5086626;28;20487;-81
2023/04/08 01:16:22;;;;;;;21.83;20.53;;;9.90;99.90;;;;;;5080133;28;20524;-82
2023/04/08 01:18:52;;;;;;;22.13;20.83;;;9.80;99.90;;;;;;5086572;28;20449;-81
2023/04/08 01:21:22;;;;;;;21.23;19.83;;;9.80;99.90;;;;;;5085970;28;21034;-82
2023/04/08 01:23:59;;;;;;;22.03;20.73;;;9.80;12.80;;;;;;5087237;28;20461;-80
2023/04/08 01:26:29;;;;;;;20.17;18.97;;;9.80;1.00;;;;;;5088068;28;20460;-82
2023/04/08 01:29:00;;;;;;;20.60;19.40;;;9.80;99.90;;;;;;5089337;28;20527;-82
2023/04/08 01:31:30;;;;;;;21.83;20.43;;;9.80;99.90;;;;;;5080422;28;20449;-80
2023/04/08 01:34:01;;;;;;;21.07;19.80;;;9.80;99.90;;;;;;5084054;28;20481;-82
2023/04/08 01:36:31;;;;;;;20.90;19.60;;;9.70;99.90;;;;;;5082613;28;20868;-80
2023/04/08 01:39:01;;;;;;;20.90;19.53;;;9.70;99.90;;;;;;5085563;28;20459;-80
2023/04/08 01:41:33;;;;;;;20.90;19.50;;;9.80;1.00;;;;;;5096102;28;20468;-81
2023/04/08 01:44:02;;;;;;;20.20;19.00;;;9.80;99.90;;;;;;5086663;28;21028;-81
2023/04/08 01:46:32;;;;;;;20.23;19.13;;;9.80;1.00;;;;;;5081087;28;20479;-81
2023/04/08 01:49:01;;;;;;;20.77;19.47;;;9.70;56.00;;;;;;5087154;28;20481;-82
2023/04/08 01:51:31;;;;;;;21.30;20.10;;;9.80;1.00;;;;;;5086394;28;20461;-80
2023/04/08 01:53:59;;;;;;;20.20;19.00;;;9.70;1.00;;;;;;5085333;28;20467;-81
2023/04/08 01:56:32;;;;;;;20.10;18.90;;;9.70;1.00;;;;;;5084748;28;20450;-81
2023/04/08 01:59:02;;;;;;;20.10;18.90;;;9.70;99.90;;;;;;5087430;28;20453;-82
2023/04/08 02:01:32;;;;;;;20.80;19.50;;;9.70;99.90;;;;;;5082865;28;20457;-82
2023/04/08 02:04:02;;;;;;;20.30;19.10;;;9.70;99.90;;;;;;5083443;28;20471;-83
2023/04/08 02:06:31;;;;;;;21.20;19.90;;;9.70;1.00;;;;;;5081580;28;20510;-81
2023/04/08 02:09:00;;;;;;;23.20;21.47;;;9.70;99.90;;;;;;5086989;28;20488;-81
2023/04/08 02:11:28;;;;;;;22.57;21.17;;;9.80;1.00;;;;;;5074192;28;20443;-82
2023/04/08 02:13:58;;;;;;;23.20;21.60;;;9.70;1.00;;;;;;5086912;28;20850;-82
2023/04/08 02:16:33;;;;;;;24.63;22.83;;;9.70;99.90;;;;;;5083066;28;20502;-81
2023/04/08 02:19:08;;;;;;;24.67;22.77;;;9.70;25.00;;;;;;5079516;28;20446;-81
2023/04/08 02:21:42;;;;;;;22.80;21.40;;;9.70;1.00;;;;;;5085482;28;20533;-80
2023/04/08 02:24:13;;;;;;;23.37;21.67;;;9.70;53.90;;;;;;5083836;28;20504;-79
2023/04/08 02:26:43;;;;;;;24.13;22.33;;;9.70;1.00;;;;;;5079686;28;20575;-80
2023/04/08 02:29:16;;;;;;;24.20;22.53;;;9.60;99.90;;;;;;5081117;28;20509;-80
2023/04/08 02:31:44;;;;;;;24.30;22.50;;;9.60;99.90;;;;;;5080496;28;20518;-81
2023/04/08 02:34:14;;;;;;;23.67;21.87;;;9.60;1.00;;;;;;5082683;28;20499;-80
2023/04/08 02:36:44;;;;;;;24.13;22.33;;;9.60;1.00;;;;;;5082596;28;20598;-80
2023/04/08 02:39:13;;;;;;;24.63;22.67;;;9.60;99.90;;;;;;5082055;28;20483;-80
2023/04/08 02:41:41;;;;;;;23.40;21.70;;;9.60;1.00;;;;;;5080617;28;20457;-80
2023/04/08 02:44:09;;;;;;;25.13;23.30;;;9.60;99.90;;;;;;5086507;28;20483;-81
2023/04/08 02:46:39;;;;;;;23.87;22.07;;;9.60;99.90;;;;;;5085136;28;20459;-80
2023/04/08 02:49:07;;;;;;;23.87;22.13;;;9.50;1.00;;;;;;5084693;28;20485;-80
2023/04/08 02:51:35;;;;;;;25.27;23.17;;;9.50;1.00;;;;;;5085851;28;20479;-81
2023/04/08 02:54:03;;;;;;;24.67;22.90;;;9.50;1.00;;;;;;5085289;28;20476;-80
2023/04/08 02:56:31;;;;;;;23.90;22.07;;;9.60;99.90;;;;;;5086022;28;20867;-83
2023/04/08 02:58:59;;;;;;;23.73;21.97;;;9.50;1.00;;;;;;5083434;28;20461;-81
2023/04/08 03:01:27;;;;;;;24.07;22.27;;;9.60;99.90;;;;;;5084590;28;20493;-81
2023/04/08 03:03:57;;;;;;;26.93;24.63;;;9.50;99.90;;;;;;5084458;28;20537;-81
2023/04/08 03:06:25;;;;;;;24.53;22.70;;;9.50;99.90;;;;;;5083778;28;21150;-81
2023/04/08 03:08:53;;;;;;;25.33;23.43;;;9.50;1.00;;;;;;5081838;28;20585;-81
2023/04/08 03:11:21;;;;;;;24.00;22.03;;;9.40;99.90;;;;;;5083700;28;20449;-82
2023/04/08 03:13:50;;;;;;;23.63;21.77;;;9.40;96.90;;;;;;5086803;28;20826;-82
2023/04/08 03:16:18;;;;;;;23.60;21.80;;;9.40;1.00;;;;;;5088206;28;20458;-81
2023/04/08 03:18:46;;;;;;;24.97;22.90;;;9.50;1.00;;;;;;5090436;28;20457;-82
2023/04/08 03:21:16;;;;;;;24.30;22.40;;;9.50;1.00;;;;;;5090065;28;20455;-82
2023/04/08 03:23:44;;;;;;;24.10;22.30;;;9.40;1.00;;;;;;5087711;28;20546;-81
2023/04/08 03:26:12;;;;;;;24.17;22.10;;;9.50;99.90;;;;;;5078985;28;20490;-85
2023/04/08 03:28:40;;;;;;;26.00;23.90;;;9.50;1.00;;;;;;5080868;28;20481;-82
2023/04/08 03:31:08;;;;;;;25.60;23.43;;;9.50;99.90;;;;;;5088265;28;20459;-82
2023/04/08 03:33:36;;;;;;;24.00;22.10;;;9.40;99.90;;;;;;5084778;28;20926;-82
2023/04/08 03:36:05;;;;;;;23.27;21.57;;;9.40;1.00;;;;;;5086667;28;20518;-82
2023/04/08 03:38:34;;;;;;;23.20;21.47;;;9.40;1.00;;;;;;5086782;28;20997;-83
2023/04/08 03:41:02;;;;;;;23.50;21.70;;;9.40;1.00;;;;;;5086937;28;20453;-79
2023/04/08 03:43:31;;;;;;;24.33;22.47;;;9.40;1.00;;;;;;5087684;28;21046;-81
2023/04/08 03:45:59;;;;;;;25.53;23.60;;;9.50;25.30;;;;;;5089112;28;20457;-83
2023/04/08 03:48:27;;;;;;;24.47;22.60;;;9.40;99.90;;;;;;5088385;28;20529;-82
2023/04/08 03:50:55;;;;;;;23.00;21.20;;;9.40;99.90;;;;;;5088807;28;20511;-82
2023/04/08 03:53:26;;;;;;;24.70;22.80;;;9.40;99.90;;;;;;5085927;28;20476;-84
2023/04/08 03:55:56;;;;;;;23.87;21.97;;;9.40;1.00;;;;;;5088538;28;20837;-81
2023/04/08 03:58:25;;;;;;;23.87;22.00;;;9.40;99.90;;;;;;5086582;28;20442;-81
2023/04/08 04:00:53;;;;;;;22.90;21.30;;;9.40;99.90;;;;;;5077164;28;20549;-81
2023/04/08 04:03:21;;;;;;;22.87;21.17;;;9.40;99.90;;;;;;5081745;28;20480;-82
2023/04/08 04:05:50;;;;;;;23.93;22.17;;;9.40;99.90;;;;;;5084307;28;20464;-81
2023/04/08 04:08:18;;;;;;;24.73;22.93;;;9.40;1.00;;;;;;5103218;28;20515;-81
2023/04/08 04:10:46;;;;;;;23.20;21.40;;;9.40;99.90;;;;;;5088309;28;20852;-83
2023/04/08 04:13:15;;;;;;;23.10;21.17;;;9.30;1.00;;;;;;5088427;28;20465;-83
2023/04/08 04:15:44;;;;;;;22.83;20.77;;;9.30;99.90;;;;;;5089596;28;20775;-82
2023/04/08 04:18:12;;;;;;;22.97;21.27;;;9.30;99.90;;;;;;5091413;28;20454;-81
2023/04/08 04:20:41;;;;;;;22.77;21.17;;;9.20;64.00;;;;;;5090257;28;20779;-83
2023/04/08 04:23:10;;;;;;;22.70;20.93;;;9.30;99.90;;;;;;5086710;28;20976;-83
2023/04/08 04:25:41;;;;;;;21.87;20.17;;;9.30;99.90;;;;;;5089424;28;21064;-81
2023/04/08 04:28:09;;;;;;;23.47;21.53;;;9.30;99.90;;;;;;5088800;28;20439;-80
2023/04/08 04:30:39;;;;;;;24.77;22.67;;;9.30;1.00;;;;;;5089050;28;21331;-82
2023/04/08 04:33:08;;;;;;;22.53;21.00;;;9.30;99.90;;;;;;5084761;28;20459;-83
2023/04/08 04:35:36;;;;;;;23.20;21.60;;;9.20;3.30;;;;;;5091054;28;20458;-81
2023/04/08 04:38:06;;;;;;;24.33;22.47;;;9.20;1.00;;;;;;5089502;28;20456;-82
2023/04/08 04:40:35;;;;;;;23.50;21.80;;;9.30;99.90;;;;;;5090514;28;20452;-82
2023/04/08 04:43:03;;;;;;;23.90;22.17;;;9.30;1.00;;;;;;5091500;28;20485;-81
2023/04/08 04:45:31;;;;;;;25.63;23.70;;;9.30;1.00;;;;;;5090767;28;20475;-81
2023/04/08 04:48:00;;;;;;;23.37;21.70;;;9.20;1.00;;;;;;5091059;28;20467;-82
2023/04/08 04:50:29;;;;;;;23.90;22.20;;;9.30;1.00;;;;;;5088376;28;20484;-82
2023/04/08 04:52:57;;;;;;;24.13;22.53;;;9.30;99.90;;;;;;5085934;28;21351;-81
2023/04/08 04:55:26;;;;;;;25.87;23.77;;;9.20;1.00;;;;;;5087941;28;21407;-83
2023/04/08 04:57:54;;;;;;;24.50;22.77;;;9.30;99.90;;;;;;5088054;28;20460;-82
2023/04/08 05:00:22;;;;;;;24.37;22.70;;;9.20;99.90;;;;;;5074823;28;20537;-81
2023/04/08 05:02:50;;;;;;;23.83;22.10;;;9.30;99.90;;;;;;5088624;28;21012;-83
2023/04/08 05:05:20;;;;;;;24.77;22.87;;;9.30;1.00;;;;;;5090479;28;20445;-81
2023/04/08 05:07:48;;;;;;;24.47;22.47;;;9.30;99.90;;;;;;5092633;28;20454;-82
2023/04/08 05:10:17;;;;;;;24.53;22.60;;;9.20;1.00;;;;;;5085374;28;20472;-82
2023/04/08 05:12:45;;;;;;;25.73;23.63;;;9.20;18.10;;;;;;5089543;28;20484;-81
2023/04/08 05:15:13;;;;;;;24.60;22.80;;;9.20;1.00;;;;;;5088205;28;20452;-82
2023/04/08 05:17:41;;;;;;;25.40;23.50;;;9.30;1.00;;;;;;5089980;28;20439;-82
2023/04/08 05:20:09;;;;;;;23.53;21.80;;;9.30;1.00;;;;;;5086039;28;20525;-81
2023/04/08 05:22:39;;;;;;;26.17;24.10;;;9.30;99.90;;;;;;5084179;28;20472;-81
2023/04/08 05:25:08;;;;;;;24.83;23.03;;;9.30;90.20;;;;;;5088324;28;20442;-80
2023/04/08 05:27:36;;;;;;;24.30;22.50;;;9.30;99.90;;;;;;5081837;28;20811;-81
2023/04/08 05:30:05;;;;;;;24.37;22.50;;;9.30;1.00;;;;;;5082270;28;20479;-81
2023/04/08 05:32:33;;;;;;;26.50;24.03;;;9.40;30.40;;;;;;5091835;28;20489;-81
2023/04/08 05:35:03;;;;;;;25.83;23.87;;;9.40;1.00;;;;;;5084645;28;20452;-82
2023/04/08 05:37:31;;;;;;;24.33;22.73;;;9.40;1.00;;;;;;5083960;28;20442;-82
2023/04/08 05:40:00;;;;;;;24.80;22.90;;;9.40;1.00;;;;;;5080263;28;20442;-81
2023/04/08 05:42:29;;;;;;;26.10;23.93;;;9.40;31.00;;;;;;5086697;28;21187;-80
2023/04/08 05:44:57;;;;;;;24.83;22.87;;;9.40;99.90;;;;;;5087220;28;20447;-80
2023/04/08 05:47:25;;;;;;;25.07;23.30;;;9.40;1.00;;;;;;5086124;28;20495;-81
2023/04/08 05:49:53;;;;;;;25.73;23.80;;;9.40;1.00;;;;;;5081640;28;20488;-80
2023/04/08 05:52:21;;;;;;;24.70;22.80;;;9.40;1.00;;;;;;5086415;28;20453;-81
2023/04/08 05:54:49;;;;;;;25.87;23.40;;;9.40;1.00;;;;;;5089476;28;20530;-81
2023/04/08 05:57:19;;;;;;;25.97;23.97;;;9.40;1.00;;;;;;5087878;28;20465;-82
2023/04/08 05:59:47;;;;;;;24.40;22.60;;;9.50;93.10;;;;;;5088255;28;20465;-80
2023/04/08 06:02:15;;;;;;;24.90;23.00;;;9.50;1.00;;;;;;5088405;28;20459;-82
2023/04/08 06:04:43;;;;;;;25.27;23.17;;;9.60;99.90;;;;;;5081901;28;20443;-82
2023/04/08 06:07:12;;;;;;;25.00;23.10;;;9.60;1.00;;;;;;5087428;28;20537;-81
2023/04/08 06:09:40;;;;;;;26.03;24.03;;;9.60;1.00;;;;;;5082376;28;20596;-81
2023/04/08 06:12:08;;;;;;;25.50;23.60;;;9.60;1.00;;;;;;5087701;28;20538;-81
2023/04/08 06:14:37;;;;;;;25.67;23.77;;;9.70;99.90;;;;;;5084408;28;20467;-81
2023/04/08 06:17:06;;;;;;;25.70;23.70;;;9.70;99.90;;;;;;5084830;28;20500;-81
2023/04/08 06:19:35;;;;;;;24.40;22.73;;;9.70;99.90;;;;;;5081190;28;20489;-81
2023/04/08 06:22:03;;;;;;;23.83;22.23;;;9.70;99.90;;;;;;5087169;28;20460;-82
2023/04/08 06:24:31;;;;;;;22.13;20.80;;;9.80;1.00;;;;;;5083329;28;20442;-82
2023/04/08 06:27:00;;;;;;;23.10;21.43;;;9.90;99.90;;;;;;5087273;28;20454;-82
2023/04/08 06:29:28;;;;;;;21.10;19.90;;;9.90;1.00;;;;;;5074558;28;20454;-81
2023/04/08 06:31:58;;;;;;;21.67;20.40;;;9.80;99.90;;;;;;5082454;28;21056;-81
2023/04/08 06:34:26;;;;;;;21.90;20.50;;;9.90;1.00;;;;;;5082399;28;20470;-81
2023/04/08 06:36:54;;;;;;;21.57;20.30;;;9.90;1.00;;;;;;5085881;28;20457;-80
2023/04/08 06:39:22;;;;;;;22.63;21.30;;;10.00;99.90;;;;;;5072054;28;20532;-78
2023/04/08 06:41:51;;;;;;;21.90;20.63;;;10.00;1.00;;;;;;5076823;28;20449;-81
2023/04/08 06:44:19;;;;;;;20.90;19.63;;;10.00;99.90;;;;;;5081556;28;21093;-80
2023/04/08 06:46:47;;;;;;;21.90;20.60;;;10.00;99.90;;;;;;5083080;28;20493;-80
2023/04/08 06:49:16;;;;;;;21.90;20.70;;;9.90;89.40;;;;;;5082263;28;20648;-80
2023/04/08 06:51:44;;;;;;;20.70;19.50;;;9.90;99.90;;;;;;5088410;28;20481;-81
2023/04/08 06:54:13;;;;;;;22.80;21.40;;;9.90;99.90;;;;;;5088889;28;21097;-79
2023/04/08 06:56:41;;;;;;;22.80;21.30;;;9.90;1.00;;;;;;5078736;28;20923;-81
2023/04/08 06:59:09;;;;;;;20.40;19.40;;;10.00;1.00;;;;;;5085507;28;20492;-81
2023/04/08 07:01:37;;;;;;;22.63;21.23;;;10.10;99.90;;;;;;5087986;28;20462;-80
2023/04/08 07:04:05;;;;;;;21.30;19.97;;;10.10;99.90;;;;;;5088047;28;21149;-80
2023/04/08 07:06:35;;;;;;;20.70;19.40;;;10.10;99.90;;;;;;5093133;28;20535;-82
2023/04/08 07:09:03;;;;;;;19.90;18.70;;;10.10;99.90;;;;;;5086629;28;20461;-79
2023/04/08 07:11:31;;;;;;;19.67;18.57;;;10.20;99.90;;;;;;5085159;28;20473;-81
2023/04/08 07:13:59;;;;;;;19.73;18.53;;;10.30;1.00;;;;;;5088969;28;20473;-79
2023/04/08 07:16:30;;;;;;;18.40;17.50;;;10.30;1.00;;;;;;5085221;28;20545;-79
2023/04/08 07:18:59;;;;;;;18.53;17.63;;;10.40;99.90;;;;;;5078113;28;20455;-81
2023/04/08 07:21:27;;;;;;;18.70;17.70;;;10.40;99.90;;;;;;5077592;28;20444;-80
2023/04/08 07:23:56;;;;;;;18.23;17.30;;;10.30;99.90;;;;;;5087260;28;20473;-81
2023/04/08 07:26:25;;;;;;;19.13;18.13;;;10.40;99.90;;;;;;5082350;28;20456;-79
2023/04/08 07:28:53;;;;;;;18.60;17.57;;;10.40;99.90;;;;;;5088409;28;20861;-78
2023/04/08 07:31:21;;;;;;;17.00;16.20;;;10.30;48.20;;;;;;5081397;28;21034;-78
2023/04/08 07:33:49;;;;;;;17.77;16.97;;;10.30;99.90;;;;;;5085997;28;20483;-80
2023/04/08 07:36:18;;;;;;;18.90;17.70;;;10.30;99.90;;;;;;5084215;28;20445;-80
2023/04/08 07:38:46;;;;;;;17.57;16.77;;;10.30;53.10;;;;;;5083164;28;20465;-82
2023/04/08 07:41:15;;;;;;;18.37;17.40;;;10.20;33.70;;;;;;5081830;28;20582;-79
2023/04/08 07:43:43;;;;;;;18.77;17.57;;;10.20;99.90;;;;;;5081961;28;20476;-80
2023/04/08 07:46:11;;;;;;;18.10;17.20;;;10.20;99.90;;;;;;5083868;28;20460;-79
2023/04/08 07:48:40;;;;;;;17.60;16.90;;;10.20;99.90;;;;;;5088980;28;20445;-79
2023/04/08 07:51:09;;;;;;;18.10;17.10;;;10.20;99.90;;;;;;5087948;28;20546;-79
2023/04/08 07:53:39;;;;;;;18.53;17.53;;;10.30;99.90;;;;;;5089170;28;20484;-80
2023/04/08 07:56:12;;;;;;;17.60;16.80;;;10.30;99.90;;;;;;5091611;28;20460;-79
2023/04/08 07:58:42;;;;;;;18.47;17.57;;;10.30;99.90;;;;;;5088869;28;20511;-81
2023/04/08 08:01:18;;;;;;;18.00;17.00;;;10.40;52.70;;;;;;5088912;28;20545;-80
2023/04/08 08:03:47;;;;;;;19.90;18.70;;;10.50;1.00;;;;;;5086082;28;20480;-79
2023/04/08 08:06:16;;;;;;;19.73;18.73;;;10.50;1.00;;;;;;5090370;28;20573;-80
2023/04/08 08:08:45;;;;;;;18.87;18.00;;;10.50;1.00;;;;;;5088317;28;20523;-79
2023/04/08 08:11:13;;;;;;;18.70;17.80;;;10.40;1.00;;;;;;5092692;28;20474;-79
2023/04/08 08:13:43;;;;;;;20.00;18.87;;;10.40;1.00;;;;;;5091128;28;20470;-80
2023/04/08 08:16:11;;;;;;;20.23;19.03;;;10.40;25.90;;;;;;5087636;28;20454;-80
2023/04/08 08:18:40;;;;;;;19.63;18.60;;;10.40;29.20;;;;;;5088233;28;20462;-79
2023/04/08 08:21:08;;;;;;;21.30;20.10;;;10.50;99.90;;;;;;5087116;28;20476;-79
2023/04/08 08:23:37;;;;;;;20.90;19.80;;;10.60;1.00;;;;;;5091658;28;21055;-79
2023/04/08 08:26:08;;;;;;;20.57;19.47;;;10.70;1.00;;;;;;5083938;28;20454;-81
2023/04/08 08:28:37;;;;;;;20.57;19.47;;;10.90;1.00;;;;;;5082912;28;20538;-80
2023/04/08 08:31:07;;;;;;;21.20;20.00;;;11.00;1.00;;;;;;5088120;28;20537;-81
2023/04/08 08:33:35;;;;;;;20.70;19.60;;;11.10;99.90;;;;;;5092963;28;20466;-80
2023/04/08 08:36:08;;;;;;;20.50;19.50;;;11.10;99.90;;;;;;5093582;28;20487;-80
2023/04/08 08:38:43;;;;;;;21.63;20.43;;;11.10;99.90;;;;;;5091690;28;20984;-79
2023/04/08 08:41:11;;;;;;;21.97;20.63;;;11.10;99.90;;;;;;5092882;28;20468;-79
2023/04/08 08:43:40;;;;;;;20.90;19.80;;;11.10;99.90;;;;;;5087833;28;20481;-78
2023/04/08 08:46:10;;;;;;;21.80;20.40;;;11.10;99.90;;;;;;5090715;28;20442;-80
2023/04/08 08:48:39;;;;;;;21.17;19.97;;;11.10;99.90;;;;;;5090045;28;20478;-78
2023/04/08 08:51:09;;;;;;;21.90;20.50;;;11.20;99.90;;;;;;5086666;28;20458;-78
2023/04/08 08:53:38;;;;;;;23.50;22.10;;;11.10;99.90;;;;;;5092062;28;20557;-79
2023/04/08 08:56:09;;;;;;;21.67;20.57;;;11.20;99.90;;;;;;5080998;28;20461;-79
2023/04/08 08:58:40;;;;;;;21.73;20.60;;;11.20;99.90;;;;;;5081214;28;21043;-80
2023/04/08 09:01:32;;;;;;;22.30;21.10;;;11.30;99.90;;;;;;5087195;28;20465;-80
2023/04/08 09:04:08;;;;;;;22.73;21.43;;;11.40;99.90;;;;;;5082265;28;20509;-79
2023/04/08 09:06:37;;;;;;;22.10;20.67;;;11.50;33.90;;;;;;5078464;28;21151;-80
2023/04/08 09:09:09;;;;;;;22.80;21.50;;;11.60;34.30;;;;;;5084888;28;20524;-81
2023/04/08 09:11:39;;;;;;;23.60;21.90;;;11.60;1.00;;;;;;5079193;28;20562;-82
2023/04/08 09:14:19;;;;;;;22.77;21.37;;;11.70;1.00;;;;;;5084416;28;20472;-81
2023/04/08 09:16:48;;;;;;;23.13;21.73;;;11.80;1.00;;;;;;5087144;28;21014;-82
2023/04/08 09:19:17;;;;;;;22.20;20.90;;;11.70;1.00;;;;;;5085603;28;20533;-81
2023/04/08 09:21:46;;;;;;;23.03;21.23;;;11.90;1.00;;;;;;5085499;28;20452;-80
2023/04/08 09:24:28;;;;;;;24.03;22.07;;;12.10;1.00;;;;;;5086540;28;20478;-80
2023/04/08 09:26:56;;;;;;;22.10;20.77;;;12.30;1.00;;;;;;5086695;28;20458;-80
2023/04/08 09:29:26;;;;;;;22.17;20.77;;;12.50;1.00;;;;;;5087101;28;20505;-81
2023/04/08 09:32:02;;;;;;;23.33;22.03;;;12.70;1.00;;;;;;5098965;28;20470;-83
2023/04/08 09:34:32;;;;;;;22.67;21.37;;;12.70;1.00;;;;;;5094135;28;20562;-82
2023/04/08 09:37:01;;;;;;;22.83;21.47;;;12.90;1.00;;;;;;5098497;28;20473;-84
2023/04/08 09:39:30;;;;;;;22.57;21.30;;;12.90;1.00;;;;;;5090703;28;20449;-84
2023/04/08 09:42:00;;;;;;;23.10;21.70;;;13.00;99.90;;;;;;5084523;28;20457;-80
2023/04/08 09:44:30;;;;;;;21.20;20.00;;;13.10;99.90;;;;;;5087449;28;20478;-79
2023/04/08 09:47:08;;;;;;;23.20;21.90;;;13.10;99.90;;;;;;5089304;28;20527;-80
2023/04/08 09:49:42;;;;;;;22.90;21.30;;;13.10;99.90;;;;;;5087479;28;21018;-85
2023/04/08 09:52:19;;;;;;;23.60;22.13;;;13.10;99.90;;;;;;5086731;28;20525;-85
2023/04/08 09:54:54;;;;;;;22.70;21.20;;;13.10;99.90;;;;;;5088550;28;20451;-83
2023/04/08 09:57:28;;;;;;;22.53;21.13;;;13.10;99.90;;;;;;5083831;28;20448;-83
2023/04/08 10:00:07;;;;;;;21.50;20.20;;;12.90;99.90;;;;;;5084742;28;20520;-83
2023/04/08 10:02:55;;;;;;;21.03;19.70;;;12.90;99.90;;;;;;5089690;28;20233;-85
2023/04/08 10:05:29;;;;;;;21.57;20.17;;;12.90;99.90;;;;;;5083211;28;20462;-85
2023/04/08 10:08:00;;;;;;;20.10;18.90;;;12.90;99.90;;;;;;5088026;28;20447;-86
2023/04/08 10:10:29;;;;;;;23.20;21.73;;;13.00;99.90;;;;;;5085388;28;20212;-88
2023/04/08 10:12:57;;;;;;;20.67;19.47;;;13.20;99.90;;;;;;5074161;28;20596;-90
2023/04/08 10:15:28;;;;;;;20.73;19.40;;;13.30;99.90;;;;;;5084422;28;20458;-85
2023/04/08 10:18:31;;;;;;;20.70;19.40;;;13.50;99.90;;;;;;5078412;28;20468;-85
2023/04/08 10:21:00;;;;;;;21.70;20.30;;;13.70;99.90;;;;;;5077594;28;20456;-85
2023/04/08 10:23:55;;;;;;;21.93;20.43;;;13.70;99.90;;;;;;5084974;28;20485;-85
2023/04/08 10:26:37;;;;;;;21.10;19.90;;;13.60;99.90;;;;;;5084454;28;20460;-87
2023/04/08 10:29:30;;;;;;;22.20;20.47;;;13.50;99.90;;;;;;5087149;28;20448;-87
2023/04/08 10:31:59;;;;;;;20.90;19.50;;;13.50;99.90;;;;;;5085322;28;20452;-87
2023/04/08 10:34:30;;;;;;;21.70;20.20;;;13.60;99.90;;;;;;5091335;28;20482;-85
2023/04/08 10:37:02;;;;;;;21.37;19.87;;;13.70;99.90;;;;;;5088407;28;20455;-87
2023/04/08 10:39:31;;;;;;;21.83;20.40;;;13.80;99.90;;;;;;5085719;28;20555;-80
2023/04/08 10:42:02;;;;;;;21.40;19.80;;;13.80;99.90;;;;;;5083432;28;20457;-82
2023/04/08 10:44:31;;;;;;;20.30;19.10;;;13.80;99.90;;;;;;5081217;28;20472;-81
2023/04/08 10:47:00;;;;;;;21.53;20.13;;;13.70;99.90;;;;;;5083357;28;20462;-80
2023/04/08 10:49:35;;;;;;;21.00;19.67;;;13.60;99.90;;;;;;5084636;28;20546;-81
2023/04/08 10:52:08;;;;;;;21.20;19.87;;;13.50;99.90;;;;;;5082847;28;20573;-80
2023/04/08 10:54:39;;;;;;;21.37;19.70;;;13.40;99.90;;;;;;5085464;28;20449;-81
2023/04/08 10:57:07;;;;;;;21.20;19.63;;;13.40;99.90;;;;;;5078913;28;20452;-81
2023/04/08 10:59:36;;;;;;;20.80;19.40;;;13.30;99.90;;;;;;5085142;28;20569;-80
2023/04/08 11:02:04;;;;;;;22.13;20.90;;;13.20;99.90;;;;;;5082169;28;20469;-81
2023/04/08 11:04:34;;;;;;;20.97;19.57;;;13.10;99.90;;;;;;5083984;28;21008;-82
2023/04/08 11:07:05;;;;;;;21.30;20.00;;;13.10;99.90;;;;;;5083561;28;21434;-82
2023/04/08 11:09:34;;;;;;;21.60;20.20;;;13.00;99.90;;;;;;5070737;28;20492;-82
2023/04/08 11:12:02;;;;;;;20.00;18.80;;;12.90;99.90;;;;;;5077834;28;20440;-82
2023/04/08 11:14:32;;;;;;;21.20;19.80;;;12.90;99.90;;;;;;5085067;28;20487;-82
2023/04/08 11:17:00;;;;;;;20.57;19.30;;;12.80;99.90;;;;;;5083334;28;20982;-82
2023/04/08 11:19:29;;;;;;;21.90;20.10;;;12.70;99.90;;;;;;5082650;28;20456;-81
2023/04/08 11:21:58;;;;;;;21.70;20.40;;;12.60;99.90;;;;;;5084609;28;20450;-82
2023/04/08 11:24:27;;;;;;;21.07;19.77;;;12.60;99.90;;;;;;5086226;28;20477;-80
2023/04/08 11:26:56;;;;;;;20.83;19.50;;;12.50;99.90;;;;;;5084041;28;20472;-83
2023/04/08 11:29:26;;;;;;;21.80;20.30;;;12.40;99.90;;;;;;5083271;28;20451;-82
2023/04/08 11:31:55;;;;;;;22.10;20.60;;;12.40;99.90;;;;;;5084033;28;20454;-81
2023/04/08 11:34:24;;;;;;;20.40;19.10;;;12.40;99.90;;;;;;5083593;28;20475;-80
2023/04/08 11:36:53;;;;;;;21.40;19.90;;;12.30;99.90;;;;;;5095660;27;20451;-80
2023/04/08 11:39:25;;;;;;;22.17;20.67;;;12.30;99.90;;;;;;5086648;28;20451;-81
2023/04/08 11:41:54;;;;;;;21.20;19.80;;;12.30;99.90;;;;;;5089732;28;20453;-82
2023/04/08 11:44:31;;;;;;;21.00;19.60;;;12.40;99.90;;;;;;5087504;28;20593;-80
2023/04/08 11:47:00;;;;;;;21.63;20.20;;;12.40;99.90;;;;;;5089099;28;20960;-81
2023/04/08 11:49:44;;;;;;;20.50;19.20;;;12.30;99.90;;;;;;5083270;28;20468;-82
2023/04/08 11:52:12;;;;;;;22.00;20.60;;;12.30;99.90;;;;;;5089290;28;20449;-80
2023/04/08 11:54:43;;;;;;;21.63;20.07;;;12.30;99.90;;;;;;5084565;28;20479;-81
2023/04/08 11:57:11;;;;;;;21.60;20.37;;;12.40;99.90;;;;;;5087001;28;20957;-82
2023/04/08 11:59:40;;;;;;;22.70;20.90;;;12.40;99.90;;;;;;5084369;28;20557;-81
2023/04/08 12:02:09;;;;;;;22.30;20.90;;;12.30;99.90;;;;;;5084316;28;20477;-82
2023/04/08 12:04:37;;;;;;;19.97;18.70;;;12.40;99.90;;;;;;5088225;28;20454;-82
2023/04/08 12:07:05;;;;;;;20.20;18.90;;;12.40;99.90;;;;;;5085925;28;20459;-81
2023/04/08 12:09:33;;;;;;;20.53;19.10;;;12.30;99.90;;;;;;5088328;28;21074;-82
2023/04/08 12:12:03;;;;;;;21.17;19.70;;;12.40;99.90;;;;;;5088248;28;20483;-82
2023/04/08 12:14:31;;;;;;;20.50;19.10;;;12.40;99.90;;;;;;5085244;28;20472;-80
2023/04/08 12:16:59;;;;;;;19.60;18.40;;;12.40;99.90;;;;;;5082803;28;20460;-81
2023/04/08 12:19:28;;;;;;;19.93;18.63;;;12.40;99.90;;;;;;5082891;28;20459;-82
2023/04/08 12:21:56;;;;;;;21.33;19.90;;;12.40;99.90;;;;;;5085194;28;20469;-82
2023/04/08 12:24:25;;;;;;;20.13;18.93;;;12.40;99.90;;;;;;5086959;28;20869;-81
2023/04/08 12:26:53;;;;;;;20.27;19.00;;;12.40;99.90;;;;;;5087976;28;20452;-81
2023/04/08 12:29:23;;;;;;;19.83;18.53;;;12.50;99.90;;;;;;5086921;28;20451;-80
2023/04/08 12:31:52;;;;;;;18.93;17.73;;;12.40;99.90;;;;;;5085783;28;20469;-81
2023/04/08 12:34:20;;;;;;;20.00;18.70;;;12.40;99.90;;;;;;5084054;28;21019;-80
2023/04/08 12:36:49;;;;;;;19.53;18.23;;;12.40;99.90;;;;;;5084308;28;20446;-81
2023/04/08 12:39:17;;;;;;;18.87;17.50;;;12.30;99.90;;;;;;5082507;28;20449;-81
2023/04/08 12:41:45;;;;;;;18.40;17.10;;;12.40;99.90;;;;;;5083859;28;20525;-79
2023/04/08 12:44:13;;;;;;;19.30;17.97;;;12.40;99.90;;;;;;5084284;28;20474;-81
2023/04/08 12:46:43;;;;;;;18.83;17.23;;;12.40;99.90;;;;;;5083969;28;20447;-80
2023/04/08 12:49:11;;;;;;;18.83;17.27;;;12.30;99.90;;;;;;5082897;28;20459;-80